Accueil
METAR-TAF:

METAR-TAF

Aéroports :

La Chaux-de-Fonds, Suisse

Aéroport régional Les Éplatures

latitude: 47-05-03N, longitude: 006-47-37E, altitude: 1027 m

Observation

Le bulletin a été fait il y a 18 minutes, à 10:20 UTC
Vent 15 kt de est/nord-est
Température -6°C
Humidité 86%
Pression 1006 hPa
Visibilité: 4500 m
Nuages fragmentés
neige faible, brume

METAR: LSGC 221020Z AUTO 06015KT 4500 -SN BR BKN/// M06/M08 Q1006

Heure: 11:38 (10:38 UTC)

Prévision

Le bulletin a été fait il y a 2 heures et 13 minutes, à 08:25 UTC
Prévision valable du 22 à 09 UTC au 22 à 18 UTC
Vent 12 kt de nord-est avec des rafales jusqu'à 25 kt
Visibilité: 4500 m
Nuages fragmentés à une hauteur de 800 ft
neige faible
Temporairement
du 22 à 09 UTC au 22 à 15 UTC
Visibilité: 6000 m
Nuages fragmentés à une hauteur de 1200 ft

TAF: LSGC 220825Z 2209/2218 05012G25KT 4500 -SN BKN008 TEMPO 2209/2215 6000 BKN012

Observations et prévisions météorologiques de plus de 4000 aéroports (messages METAR et TAF).

Les stations disponibles sont représentées par des disques jaunes et rouges sur la carte.

Passer la souris dessus pour voir le nom de la station.

Cliquer dessus pour voir les observations et prévisions météorologiques.

Pour changer de carte: cliquez sur les boutons verts avec une croix noire pour zoomer, sur le bouton vert avec un tiret pour effectuer un zoom arrière, ou sur les flèches vertes pour les cartes adjacentes.


METAR-TAF: